Time;durP1;ratioP1;P1;durP2;ratioP2;P2;SDS_P1;SDS_P2;PMS_P1;PMS_P2;Temp;Humidity;BMP_temperature;BMP_pressure;BME280_temperature;BME280_humidity;BME280_pressure;Samples;Min_cycle;Max_cycle;Signal;HPM_P1;HPM_P2
2023/03/05 00:01:57;;;;;;;52.87;30.10;;;;;;;4.90;100.00;4498.31;5091592;28;20204;-60
2023/03/05 00:04:24;;;;;;;47.47;28.60;;;;;;;4.78;100.00;7668.06;5091688;28;20191;-60
2023/03/05 00:06:51;;;;;;;52.93;28.93;;;;;;;4.78;100.00;8937.44;5091552;28;20191;-62
2023/03/05 00:09:18;;;;;;;39.67;27.03;;;;;;;4.73;100.00;8936.56;5091538;28;20225;-61
2023/03/05 00:11:45;;;;;;;43.47;27.50;;;;;;;4.36;100.00;10198.28;5091342;28;20195;-60
2023/03/05 00:14:12;;;;;;;45.63;29.40;;;;;;;4.56;100.00;9567.88;5091255;28;20188;-60
2023/03/05 00:16:40;;;;;;;44.77;28.07;;;;;;;4.30;100.00;11148.97;5091546;28;20180;-60
2023/03/05 00:19:07;;;;;;;45.67;27.10;;;;;;;4.32;100.00;10514.72;5091157;28;20180;-60
2023/03/05 00:21:37;;;;;;;45.53;27.50;;;;;;;4.43;100.00;8613.47;5091209;28;20184;-59
2023/03/05 00:24:06;;;;;;;43.07;28.63;;;;;;;4.56;100.00;7664.28;5091486;28;20627;-60
2023/03/05 00:26:36;;;;;;;46.67;29.47;;;;;;;4.63;100.00;6714.03;5091076;28;20195;-61
2023/03/05 00:29:03;;;;;;;45.37;27.30;;;;;;;4.67;100.00;6397.47;5091122;28;20195;-60
2023/03/05 00:31:32;;;;;;;48.97;29.63;;;;;;;4.70;100.00;5763.84;5091245;28;20195;-60
2023/03/05 00:34:03;;;;;;;47.47;28.60;;;;;;;4.75;100.00;5447.50;5091074;28;20188;-60
2023/03/05 00:36:30;;;;;;;46.93;29.40;;;;;;;4.71;100.00;4812.91;5091185;28;20184;-60
2023/03/05 00:38:57;;;;;;;50.60;28.03;;;;;;;4.71;100.00;4179.03;5091399;28;20188;-60
2023/03/05 00:41:24;;;;;;;53.37;29.33;;;;;;;4.70;100.00;4178.91;5091208;28;20283;-60
2023/03/05 00:43:51;;;;;;;44.30;28.37;;;;;;;4.64;100.00;4178.19;5090980;28;20204;-60
2023/03/05 00:46:18;;;;;;;48.87;28.67;;;;;;;4.76;100.00;3545.81;5091308;28;20200;-60
2023/03/05 00:48:45;;;;;;;54.50;31.83;;;;;;;4.84;100.00;3546.66;5090941;28;20195;-62
2023/03/05 00:51:13;;;;;;;50.10;28.63;;;;;;;4.72;100.00;3228.53;5092024;28;20191;-61
2023/03/05 00:53:40;;;;;;;47.63;29.10;;;;;;;4.93;100.00;3230.69;5095077;28;20527;-61
2023/03/05 00:56:07;;;;;;;51.67;29.73;;;;;;;4.87;100.00;3230.06;5107332;28;20313;-60
2023/03/05 00:58:34;;;;;;;46.27;27.93;;;;;;;5.00;100.00;2280.63;5115076;28;20191;-63
2023/03/05 01:01:01;;;;;;;43.17;27.33;;;;;;;4.91;100.00;2596.66;5115225;28;20679;-60
2023/03/05 01:03:29;;;;;;;49.30;28.27;;;;;;;5.02;100.00;2280.81;5115012;28;20204;-60
2023/03/05 01:05:56;;;;;;;42.67;26.57;;;;;;;4.99;100.00;4182.34;5114938;28;20206;-60
2023/03/05 01:08:25;;;;;;;48.50;28.07;;;;;;;4.97;100.00;6402.13;5115165;28;20196;-60
2023/03/05 01:10:52;;;;;;;43.17;28.20;;;;;;;4.79;100.00;6082.25;5114757;28;20194;-60
2023/03/05 01:13:19;;;;;;;42.93;27.90;;;;;;;5.03;100.00;4817.03;5114762;28;20186;-60
2023/03/05 01:15:47;;;;;;;44.80;27.63;;;;;;;5.13;100.00;4183.94;5114697;28;20184;-59
2023/03/05 01:18:15;;;;;;;47.47;29.03;;;;;;;5.02;100.00;3548.63;5114839;28;20260;-65
2023/03/05 01:20:42;;;;;;;41.30;28.93;;;;;;;4.92;100.00;6718.69;5114647;28;20184;-61
2023/03/05 01:23:09;;;;;;;48.10;28.47;;;;;;;4.77;100.00;9254.78;5114656;28;20574;-61
2023/03/05 01:25:37;;;;;;;42.87;27.00;;;;;;;4.86;100.00;10209.16;5114858;28;20180;-61
2023/03/05 01:28:04;;;;;;;54.13;29.47;;;;;;;4.73;100.00;9571.38;5114487;28;20187;-61
2023/03/05 01:30:31;;;;;;;48.67;29.73;;;;;;;4.90;100.00;5132.47;5114438;28;20183;-60
2023/03/05 01:32:58;;;;;;;43.10;29.43;;;;;;;4.88;100.00;3230.16;5096283;28;20175;-60
2023/03/05 01:35:26;;;;;;;42.77;28.40;;;;;;;4.72;100.00;1961.47;5114319;28;20194;-60
2023/03/05 01:37:53;;;;;;;43.50;29.83;;;;;;;4.90;100.00;1646.16;5114389;28;20197;-60
2023/03/05 01:40:24;;;;;;;50.30;30.30;;;;;;;4.94;100.00;2596.97;5114242;28;20289;-60
2023/03/05 01:42:59;;;;;;;49.20;31.23;;;;;;;4.79;100.00;3229.19;5114124;28;20218;-60
2023/03/05 01:45:26;;;;;;;53.37;28.47;;;;;;;4.46;100.00;6394.38;5114434;28;20594;-59
2023/03/05 01:47:53;;;;;;;46.50;29.70;;;;;;;4.35;100.00;9563.53;5114265;28;20286;-60
2023/03/05 01:50:25;;;;;;;52.17;30.00;;;;;;;3.95;100.00;4486.69;5114437;28;20642;-60
2023/03/05 01:52:55;;;;;;;45.60;30.07;;;;;;;3.78;100.00;-2154.47;5114291;28;20550;-59
2023/03/05 01:55:25;;;;;;;55.97;31.90;;;;;;;3.89;100.00;-4049.06;5114018;28;20607;-61
2023/03/05 01:57:55;;;;;;;66.23;33.43;;;;;;;3.87;100.00;-3733.31;5114268;28;20554;-60
2023/03/05 02:00:30;;;;;;;63.80;34.60;;;;;;;4.10;100.00;-3733.59;5113890;28;20191;-60
2023/03/05 02:02:58;;;;;;;62.90;34.93;;;;;;;4.13;100.00;-3101.84;5113697;28;20568;-60
2023/03/05 02:05:28;;;;;;;61.77;34.63;;;;;;;4.42;100.00;-3101.88;5114091;28;20657;-60
2023/03/05 02:07:56;;;;;;;61.67;36.60;;;;;;;4.45;100.00;376.84;5113752;28;20186;-60
2023/03/05 02:10:26;;;;;;;54.93;31.37;;;;;;;4.49;100.00;3226.22;5113664;28;20184;-60
2023/03/05 02:12:58;;;;;;;52.73;32.20;;;;;;;4.51;100.00;5127.28;5113995;28;20638;-61
2023/03/05 02:15:25;;;;;;;49.00;31.47;;;;;;;4.55;100.00;6712.84;5113874;28;20190;-61
2023/03/05 02:17:52;;;;;;;47.77;30.93;;;;;;;4.44;100.00;10517.50;5113823;28;20606;-61
2023/03/05 02:20:22;;;;;;;48.30;30.77;;;;;;;4.40;100.00;11468.84;5113880;28;20214;-61
2023/03/05 02:22:50;;;;;;;55.37;31.30;;;;;;;4.25;100.00;12734.91;5113660;28;20550;-60
2023/03/05 02:25:19;;;;;;;50.63;29.23;;;;;;;4.33;100.00;11149.78;5113377;28;20191;-61
2023/03/05 02:27:54;;;;;;;48.07;28.40;;;;;;;4.28;100.00;8927.72;5113352;28;20184;-61
2023/03/05 02:30:21;;;;;;;51.90;29.93;;;;;;;4.36;100.00;7343.72;5113312;28;20194;-60
2023/03/05 02:32:48;;;;;;;51.17;28.50;;;;;;;4.17;100.00;8291.44;5113245;28;20187;-61
2023/03/05 02:35:15;;;;;;;52.93;28.30;;;;;;;4.16;100.00;8608.31;5113461;28;20630;-60
2023/03/05 02:37:42;;;;;;;57.13;28.40;;;;;;;4.25;100.00;7658.84;5113122;28;20266;-61
2023/03/05 02:40:13;;;;;;;47.23;28.53;;;;;;;4.22;100.00;6390.59;5113020;28;20232;-60
2023/03/05 02:42:40;;;;;;;46.27;27.67;;;;;;;4.28;100.00;5124.16;5113067;28;20222;-60
2023/03/05 02:45:08;;;;;;;35.53;23.10;;;;;;;4.33;100.00;4174.59;5113024;28;20275;-60
2023/03/05 02:47:35;;;;;;;42.43;27.80;;;;;;;4.32;100.00;3857.78;5113318;28;20218;-60
2023/03/05 02:50:02;;;;;;;44.67;25.60;;;;;;;4.09;100.00;5438.44;5113180;28;20277;-60
2023/03/05 02:52:31;;;;;;;43.40;24.90;;;;;;;4.11;100.00;5121.94;5112841;28;20187;-60
2023/03/05 02:54:58;;;;;;;41.87;25.50;;;;;;;4.00;100.00;5753.81;5113015;28;20238;-61
2023/03/05 02:57:26;;;;;;;30.67;20.53;;;;;;;4.09;100.00;5438.38;5112843;28;20569;-61
2023/03/05 02:59:53;;;;;;;34.13;22.60;;;;;;;4.05;100.00;3221.69;5112710;28;20194;-60
2023/03/05 03:02:21;;;;;;;36.90;24.15;;;;;;;3.73;100.00;1953.44;5112768;28;20649;-60
2023/03/05 03:04:47;;;;;;;41.20;25.53;;;;;;;3.76;100.00;1953.69;5112610;28;20222;-60
2023/03/05 03:07:15;;;;;;;47.67;26.20;;;;;;;3.73;100.00;3534.75;5112926;28;20590;-59
2023/03/05 03:09:42;;;;;;;40.90;24.43;;;;;;;3.32;100.00;6060.53;5112454;28;20184;-59
2023/03/05 03:12:10;;;;;;;40.33;25.87;;;;;;;3.66;100.00;7015.31;5112819;28;20240;-61
2023/03/05 03:14:41;;;;;;;45.47;25.43;;;;;;;3.45;100.00;8278.25;5111723;28;20191;-61
2023/03/05 03:17:08;;;;;;;41.03;24.77;;;;;;;3.37;100.00;7010.56;5112321;28;20194;-61
2023/03/05 03:19:36;;;;;;;49.90;24.70;;;;;;;3.51;100.00;7012.84;5112392;28;20294;-60
2023/03/05 03:22:03;;;;;;;41.20;24.70;;;;;;;3.44;100.00;7328.25;5112340;28;20195;-60
2023/03/05 03:24:30;;;;;;;43.83;24.50;;;;;;;2.90;100.00;7951.91;5112382;28;20207;-61
2023/03/05 03:26:57;;;;;;;37.60;24.20;;;;;;;3.16;100.00;2580.75;5112118;28;20554;-60
2023/03/05 03:29:24;;;;;;;36.47;25.37;;;;;;;3.43;100.00;2267.09;5112156;28;20190;-60
2023/03/05 03:31:52;;;;;;;41.53;26.23;;;;;;;3.53;100.00;2584.06;5112472;28;20210;-60
2023/03/05 03:34:20;;;;;;;41.87;23.73;;;;;;;3.66;100.00;3534.06;5112365;28;20193;-60
2023/03/05 03:36:49;;;;;;;39.33;23.27;;;;;;;3.32;100.00;8909.19;5112294;28;20625;-61
2023/03/05 03:39:16;;;;;;;38.57;22.50;;;;;;;3.56;100.00;9864.38;5112371;28;20549;-61
2023/03/05 03:41:45;;;;;;;40.60;22.73;;;;;;;3.51;100.00;12716.16;5112071;28;20187;-59
2023/03/05 03:44:12;;;;;;;43.83;23.80;;;;;;;3.60;100.00;12401.34;5112175;28;20224;-61
2023/03/05 03:46:39;;;;;;;34.03;23.27;;;;;;;3.63;100.00;11450.78;5111962;28;20194;-60
2023/03/05 03:49:08;;;;;;;38.53;23.07;;;;;;;3.34;100.00;12711.63;5111814;28;20199;-61
2023/03/05 03:51:35;;;;;;;38.63;21.73;;;;;;;3.06;100.00;12387.78;5111894;28;20183;-61
2023/03/05 03:54:02;;;;;;;41.33;21.27;;;;;;;3.04;100.00;11120.13;5111876;28;20209;-60
2023/03/05 03:56:28;;;;;;;32.27;21.70;;;;;;;3.01;100.00;9852.84;5111700;28;20230;-61
2023/03/05 03:58:55;;;;;;;44.67;23.17;;;;;;;3.02;100.00;8586.84;5112015;28;20626;-60
2023/03/05 04:01:22;;;;;;;34.93;21.13;;;;;;;3.33;100.00;7642.91;5111770;28;20183;-61
2023/03/05 04:03:49;;;;;;;34.27;22.73;;;;;;;2.97;100.00;7636.69;5111917;28;20574;-61
2023/03/05 04:06:18;;;;;;;47.47;20.77;;;;;;;2.84;100.00;8899.91;5111715;28;20215;-60
2023/03/05 04:08:44;;;;;;;38.93;21.87;;;;;;;2.67;100.00;8264.00;5111824;28;20668;-60
2023/03/05 04:11:11;;;;;;;36.47;20.70;;;;;;;2.96;100.00;6055.19;5111582;28;20199;-61
2023/03/05 04:13:38;;;;;;;37.57;20.73;;;;;;;3.03;100.00;5740.00;5111890;28;20250;-61
2023/03/05 04:16:06;;;;;;;34.63;21.37;;;;;;;3.23;100.00;4794.16;5111877;28;20261;-60
2023/03/05 04:18:33;;;;;;;39.17;23.10;;;;;;;3.38;100.00;3847.22;5111937;28;20274;-60
2023/03/05 04:21:00;;;;;;;33.33;23.07;;;;;;;3.57;100.00;2268.28;5111513;28;20194;-60
2023/03/05 04:23:28;;;;;;;44.00;23.70;;;;;;;3.80;100.00;1637.75;5111812;28;20592;-60
2023/03/05 04:25:55;;;;;;;37.23;22.83;;;;;;;3.85;100.00;1954.44;5114208;28;20183;-62
2023/03/05 04:28:22;;;;;;;37.53;22.57;;;;;;;4.03;100.00;2272.25;5115628;28;20180;-61
2023/03/05 04:30:48;;;;;;;34.20;22.53;;;;;;;4.06;100.00;1956.16;5115824;28;20194;-59
2023/03/05 04:33:15;;;;;;;38.50;23.07;;;;;;;4.38;100.00;1642.16;5115548;28;20186;-60
2023/03/05 04:35:42;;;;;;;32.27;21.53;;;;;;;4.31;100.00;1325.19;5115542;28;20198;-61
2023/03/05 04:38:10;;;;;;;32.80;21.70;;;;;;;4.53;100.00;693.72;5115352;28;20183;-60
2023/03/05 04:40:38;;;;;;;30.97;21.83;;;;;;;4.65;100.00;377.94;5115378;28;20187;-60
2023/03/05 04:43:05;;;;;;;35.53;21.83;;;;;;;4.71;100.00;1011.41;5115575;28;20561;-61
2023/03/05 04:45:32;;;;;;;35.97;21.27;;;;;;;4.83;100.00;695.56;5115403;28;20186;-60
2023/03/05 04:47:59;;;;;;;43.53;22.67;;;;;;;4.99;100.00;-253.50;5115263;28;20183;-61
2023/03/05 04:50:26;;;;;;;43.80;25.40;;;;;;;4.97;100.00;-570.19;5115591;28;20206;-60
2023/03/05 04:52:53;;;;;;;46.13;28.17;;;;;;;5.05;100.00;-1203.06;5115277;28;20192;-60
2023/03/05 04:55:20;;;;;;;56.93;31.47;;;;;;;5.24;100.00;-1519.16;5114982;28;20231;-60
2023/03/05 04:57:48;;;;;;;56.93;33.80;;;;;;;5.30;100.00;-1202.31;5115139;28;20184;-60
2023/03/05 05:00:17;;;;;;;50.73;30.73;;;;;;;5.35;100.00;-1202.19;5115090;28;20199;-62
2023/03/05 05:02:46;;;;;;;50.17;32.67;;;;;;;5.36;100.00;-1835.53;5115070;28;20183;-62
2023/03/05 05:05:16;;;;;;;48.73;30.90;;;;;;;5.52;100.00;-2785.34;5114829;28;20204;-60
2023/03/05 05:07:44;;;;;;;46.20;29.30;;;;;;;5.68;100.00;-3735.34;5114968;28;20186;-61
2023/03/05 05:10:12;;;;;;;50.23;29.63;;;;;;;5.76;100.00;-3418.72;5114761;28;20513;-60
2023/03/05 05:12:39;;;;;;;46.87;27.90;;;;;;;5.89;100.00;-3735.56;5114819;28;20313;-59
2023/03/05 05:15:09;;;;;;;43.83;28.20;;;;;;;6.04;100.00;-4052.53;5115069;28;20251;-60
2023/03/05 05:17:36;;;;;;;49.83;28.83;;;;;;;6.23;100.00;-4369.72;5114813;28;20187;-60
2023/03/05 05:20:05;;;;;;;40.13;26.33;;;;;;;6.37;100.00;-4370.03;5114865;28;20209;-60
2023/03/05 05:22:32;;;;;;;49.50;27.43;;;;;;;6.46;100.00;-3419.09;5114702;28;20242;-61
2023/03/05 05:24:59;;;;;;;45.17;28.27;;;;;;;6.52;100.00;-2150.47;5114404;28;20247;-61
2023/03/05 05:27:26;;;;;;;49.40;28.47;;;;;;;6.46;100.00;-1198.81;5115060;28;20553;-60
2023/03/05 05:29:53;;;;;;;45.57;26.87;;;;;;;6.64;100.00;-1515.63;5114505;28;20193;-60
2023/03/05 05:32:23;;;;;;;36.13;25.07;;;;;;;6.70;100.00;-563.19;5114930;28;20191;-60
2023/03/05 05:34:53;;;;;;;41.17;24.60;;;;;;;6.68;100.00;71.75;5114708;28;20283;-60
2023/03/05 05:37:20;;;;;;;41.43;24.73;;;;;;;6.59;100.00;-246.22;5113672;28;20190;-60
2023/03/05 05:39:49;;;;;;;39.17;25.60;;;;;;;6.55;100.00;71.06;5114795;28;20183;-59
2023/03/05 05:42:16;;;;;;;46.13;25.10;;;;;;;6.56;100.00;-246.34;5114346;28;20187;-60
2023/03/05 05:44:43;;;;;;;40.07;25.90;;;;;;;6.64;100.00;-1198.28;5114670;28;20622;-60
2023/03/05 05:47:10;;;;;;;42.90;25.97;;;;;;;6.60;100.00;-1515.75;5114447;28;20191;-60
2023/03/05 05:49:38;;;;;;;39.43;25.47;;;;;;;6.76;100.00;-1197.88;5114504;28;20627;-61
2023/03/05 05:52:05;;;;;;;36.53;25.13;;;;;;;6.69;100.00;-245.72;5114195;28;20183;-60
2023/03/05 05:54:32;;;;;;;60.97;36.10;;;;;;;6.64;100.00;1659.47;5114343;28;20183;-60
2023/03/05 05:56:59;;;;;;;54.47;33.97;;;;;;;6.43;100.00;2928.28;5113819;28;20235;-60
2023/03/05 05:59:26;;;;;;;61.27;35.60;;;;;;;6.11;100.00;2925.19;5114051;28;20198;-59
2023/03/05 06:01:52;;;;;;;57.87;33.30;;;;;;;6.11;100.00;703.34;5113966;28;20193;-60
2023/03/05 06:04:19;;;;;;;62.37;36.17;;;;;;;6.17;100.00;-882.56;5113951;28;20231;-61
2023/03/05 06:06:48;;;;;;;58.90;34.83;;;;;;;6.17;100.00;-2151.00;5114026;28;20558;-61
2023/03/05 06:09:14;;;;;;;63.10;34.03;;;;;;;6.54;100.00;-2467.66;5114080;28;20640;-60
2023/03/05 06:11:41;;;;;;;54.20;32.93;;;;;;;6.59;100.00;-1515.75;5113941;28;20546;-60
2023/03/05 06:14:10;;;;;;;56.90;32.57;;;;;;;6.56;100.00;-881.16;5114018;28;20661;-61
2023/03/05 06:16:37;;;;;;;58.70;33.57;;;;;;;6.74;100.00;-563.00;5113906;28;20559;-61
2023/03/05 06:19:04;;;;;;;59.40;38.03;;;;;;;6.81;100.00;-562.72;5113516;28;20183;-60
2023/03/05 06:21:33;;;;;;;70.40;40.67;;;;;;;6.84;100.00;-562.59;5113482;28;20221;-61
2023/03/05 06:24:01;;;;;;;76.50;43.00;;;;;;;6.75;100.00;72.06;5113636;28;20570;-61
2023/03/05 06:26:28;;;;;;;82.37;45.10;;;;;;;6.88;100.00;1343.56;5113298;28;20190;-61
2023/03/05 06:28:56;;;;;;;83.10;44.27;;;;;;;6.81;100.00;3249.91;5113305;28;20300;-61
2023/03/05 06:31:25;;;;;;;72.53;44.47;;;;;;;6.86;100.00;3250.44;5113639;28;20188;-61
2023/03/05 06:33:53;;;;;;;79.60;45.40;;;;;;;6.98;100.00;5478.25;5113514;28;20209;-61
2023/03/05 06:36:23;;;;;;;75.90;43.87;;;;;;;7.02;100.00;6433.69;5113218;28;20179;-60
2023/03/05 06:38:50;;;;;;;73.90;41.10;;;;;;;7.10;100.00;8664.13;5113060;28;20187;-60
2023/03/05 06:41:21;;;;;;;72.23;40.30;;;;;;;7.26;100.00;9942.09;5113079;28;20190;-60
2023/03/05 06:43:48;;;;;;;67.50;38.87;;;;;;;7.32;100.00;11856.81;5113151;28;20187;-61
2023/03/05 06:46:18;;;;;;;70.80;38.77;;;;;;;7.29;100.00;12813.16;5113267;28;20198;-61
2023/03/05 06:48:45;;;;;;;73.13;38.47;;;;;;;7.34;100.00;10900.41;5112686;28;20657;-60
2023/03/05 06:51:16;;;;;;;65.10;37.33;;;;;;;7.58;100.00;10586.88;5113231;28;20207;-60
2023/03/05 06:53:43;;;;;;;62.40;34.97;;;;;;;7.66;100.00;11545.97;5112874;28;20188;-61
2023/03/05 06:56:12;;;;;;;64.13;35.53;;;;;;;7.82;100.00;12507.63;5112707;28;20230;-61
2023/03/05 06:58:41;;;;;;;60.70;33.23;;;;;;;7.94;100.00;13149.28;5113013;28;20289;-60
2023/03/05 07:01:08;;;;;;;62.13;32.07;;;;;;;8.05;100.00;15389.44;5113230;28;20316;-62
2023/03/05 07:03:35;;;;;;;61.10;31.13;;;;;;;8.12;100.00;19551.13;5112767;28;20210;-60
2023/03/05 07:06:04;;;;;;;45.80;30.10;;;;;;;8.26;100.00;23401.06;5112700;28;20198;-60
2023/03/05 07:08:31;;;;;;;47.73;28.83;;;;;;;8.37;100.00;28540.00;5112962;28;20184;-60
2023/03/05 07:10:58;;;;;;;51.37;27.60;;;;;;;8.43;100.00;33042.97;5112933;28;20526;-62
2023/03/05 07:13:25;;;;;;;46.13;27.53;;;;;;;8.61;100.00;33696.81;5094763;28;20661;-61
2023/03/05 07:15:54;;;;;;;50.80;28.40;;;;;;;8.67;100.00;35310.16;5112275;28;20197;-60
2023/03/05 07:18:21;;;;;;;45.90;26.23;;;;;;;8.64;100.00;39173.44;5112762;28;20527;-61
2023/03/05 07:20:48;;;;;;;49.33;25.43;;;;;;;8.83;100.00;38864.25;5112714;28;20591;-62
2023/03/05 07:23:15;;;;;;;44.07;25.33;;;;;;;8.79;100.00;44346.06;5112346;28;20523;-61
2023/03/05 07:25:41;;;;;;;46.17;26.43;;;;;;;8.77;100.00;54692.34;5112428;28;20294;-60
2023/03/05 07:28:09;;;;;;;34.60;22.73;;;;;;;8.98;100.00;57953.19;5112327;28;20765;-61
2023/03/05 07:30:38;;;;;;;46.13;25.13;;;;;;;9.03;100.00;63151.19;5112168;28;20278;-61
2023/03/05 07:33:07;;;;;;;35.00;24.30;;;;;;;9.07;100.00;65755.16;5112130;28;20230;-61
2023/03/05 07:35:33;;;;;;;40.40;24.90;;;;;;;9.05;100.00;69981.38;5112496;28;20176;-60
2023/03/05 07:38:00;;;;;;;42.47;24.63;;;;;;;9.24;100.00;73260.94;5112448;28;20187;-61
2023/03/05 07:40:27;;;;;;;39.97;23.67;;;;;;;9.30;100.00;86657.72;5112707;28;20630;-60
2023/03/05 07:42:54;;;;;;;40.10;23.93;;;;;;;9.28;100.00;97140.25;5112457;28;20191;-61
2023/03/05 07:45:21;;;;;;;37.87;24.57;;;;;;;9.32;100.00;103716.88;5111902;28;20203;-61
2023/03/05 07:47:48;;;;;;;56.73;25.20;;;;;;;9.39;100.00;103399.53;5112330;28;20526;-61
2023/03/05 07:50:17;;;;;;;36.90;23.90;;;;;;;9.39;100.00;102741.97;5112368;28;20191;-61
2023/03/05 07:52:44;;;;;;;45.63;25.40;;;;;;;9.47;100.00;98812.69;5112264;28;20607;-60
2023/03/05 07:55:11;;;;;;;43.10;24.83;;;;;;;9.59;100.00;98505.28;5111649;28;20234;-61
2023/03/05 07:57:38;;;;;;;36.60;24.23;;;;;;;9.79;100.00;107749.34;5112219;28;20210;-63
2023/03/05 08:00:06;;;;;;;35.60;23.00;;;;;;;9.88;100.00;113372.63;5111682;28;20188;-64
2023/03/05 08:02:33;;;;;;;39.83;23.57;;;;;;;10.10;100.00;115395.50;5111778;28;20191;-61
2023/03/05 08:05:00;;;;;;;41.50;23.30;;;;;;;10.25;100.00;133643.38;5111697;28;20206;-61
2023/03/05 08:07:28;;;;;;;37.80;22.90;;;;;;;10.49;100.00;148679.38;5112105;28;20203;-61
2023/03/05 08:09:55;;;;;;;42.50;23.67;;;;;;;10.38;100.00;148650.31;5111857;28;20179;-61
2023/03/05 08:12:23;;;;;;;52.63;23.87;;;;;;;10.65;100.00;148717.31;5111779;28;20183;-61
2023/03/05 08:14:50;;;;;;;40.07;25.73;;;;;;;10.58;100.00;148700.84;5111640;28;20187;-61
2023/03/05 08:17:17;;;;;;;46.63;26.70;;;;;;;10.73;100.00;148737.53;5112052;28;20659;-61
2023/03/05 08:19:44;;;;;;;47.50;25.73;;;;;;;10.53;100.00;140430.13;5111591;28;20187;-60
2023/03/05 08:22:11;;;;;;;46.63;27.93;;;;;;;10.73;100.00;134417.38;5111469;28;20188;-62
2023/03/05 08:24:39;;;;;;;49.40;26.93;;;;;;;10.93;100.00;148788.09;5111445;28;20208;-61
2023/03/05 08:27:06;;;;;;;56.23;29.37;;;;;;;11.01;100.00;148808.31;5111786;28;20183;-62
2023/03/05 08:29:33;;;;;;;49.53;28.17;;;;;;;11.18;100.00;148851.31;5111519;28;20183;-63
2023/03/05 08:32:00;;;;;;;47.33;28.93;;;;;;;11.58;100.00;148950.00;5111494;28;20191;-61
2023/03/05 08:34:27;;;;;;;52.87;30.77;;;;;;;11.83;100.00;149013.28;5111489;28;20271;-61
2023/03/05 08:36:54;;;;;;;48.83;29.70;;;;;;;12.18;100.00;149100.56;5111451;28;20184;-61
2023/03/05 08:39:20;;;;;;;48.67;28.17;;;;;;;12.67;100.00;149224.66;5111531;28;20211;-61
2023/03/05 08:41:50;;;;;;;42.60;26.37;;;;;;;13.64;100.00;149466.63;5112078;28;20184;-62
2023/03/05 08:44:17;;;;;;;32.27;21.73;;;;;;;14.09;100.00;149580.69;5111608;28;20626;-61
2023/03/05 08:46:44;;;;;;;35.13;20.83;;;;;;;15.60;100.00;149958.72;5111406;28;20187;-61
2023/03/05 08:49:10;;;;;;;29.47;21.53;;;;;;;16.06;100.00;150072.94;5111481;28;20263;-61
2023/03/05 08:51:37;;;;;;;25.90;17.90;;;;;;;15.65;100.00;149971.44;5111743;28;20508;-62
2023/03/05 08:54:06;;;;;;;23.00;17.23;;;;;;;15.29;100.00;149880.00;5111313;28;20194;-62
2023/03/05 08:56:33;;;;;;;22.40;17.33;;;;;;;15.43;100.00;149915.53;5111379;28;20322;-61
2023/03/05 08:59:03;;;;;;;23.10;16.57;;;;;;;15.91;100.00;150037.41;5111218;28;20194;-61
2023/03/05 09:01:30;;;;;;;22.20;17.10;;;;;;;15.98;100.00;150055.19;5111275;28;20465;-61
2023/03/05 09:03:58;;;;;;;20.40;16.50;;;;;;;15.87;100.00;150027.25;5111131;28;20188;-61
2023/03/05 09:06:25;;;;;;;31.27;17.63;;;;;;;15.72;100.00;149987.91;5111116;28;20214;-61
2023/03/05 09:08:52;;;;;;;25.50;17.70;;;;;;;15.95;100.00;150047.56;5111376;28;20649;-61
2023/03/05 09:11:19;;;;;;;29.60;16.80;;;;;;;16.82;96.16;150266.00;5111124;28;20194;-61
2023/03/05 09:13:46;;;;;;;28.77;17.00;;;;;;;17.18;96.42;150354.94;5114821;28;20579;-62
2023/03/05 09:16:17;;;;;;;21.87;16.53;;;;;;;17.97;85.61;150553.22;5115107;28;20554;-62
2023/03/05 09:18:44;;;;;;;21.10;17.50;;;;;;;20.19;71.26;151113.13;5115119;28;20194;-61
2023/03/05 09:21:13;;;;;;;19.70;16.92;;;;;;;20.95;64.26;151305.50;5114967;28;20194;-62
2023/03/05 09:23:40;;;;;;;19.10;15.85;;;;;;;20.85;62.76;151278.72;5114718;28;20191;-62
2023/03/05 09:26:08;;;;;;;17.52;15.73;;;;;;;20.89;66.20;151290.19;5114565;28;20218;-62
2023/03/05 09:28:35;;;;;;;21.33;16.70;;;;;;;21.00;63.40;151316.97;5114887;28;20230;-62
2023/03/05 09:31:03;;;;;;;21.75;16.70;;;;;;;21.20;61.45;151367.97;5115217;28;20187;-62
2023/03/05 09:33:31;;;;;;;23.65;17.67;;;;;;;20.67;65.11;151234.13;5114636;28;20194;-62
2023/03/05 09:35:59;;;;;;;27.13;17.10;;;;;;;20.58;67.58;151209.97;5114785;28;20187;-62
2023/03/05 09:38:26;;;;;;;17.90;16.05;;;;;;;19.84;68.87;151025.28;5114441;28;20183;-61
2023/03/05 09:41:01;;;;;;;22.52;17.05;;;;;;;19.26;74.13;150878.88;5114638;28;20202;-62
2023/03/05 09:43:42;;;;;;;21.77;17.57;;;;;;;18.12;81.96;150591.41;5114376;28;20191;-61
2023/03/05 09:46:31;;;;;;;19.93;17.20;;;;;;;17.83;90.34;150517.63;5114362;28;20218;-62
2023/03/05 09:49:11;;;;;;;22.30;16.80;;;;;;;17.52;92.94;150441.34;5110883;28;20212;-61
2023/03/05 09:51:40;;;;;;;18.13;16.27;;;;;;;17.20;95.36;150361.28;5111352;28;20214;-61
2023/03/05 09:54:13;;;;;;;24.93;16.73;;;;;;;17.50;93.56;150434.97;5114382;28;20211;-62
2023/03/05 09:56:44;;;;;;;18.53;16.53;;;;;;;17.75;91.07;150499.84;5113972;28;20238;-61
2023/03/05 09:59:22;;;;;;;17.63;15.93;;;;;;;18.01;89.25;150563.41;5114199;28;20543;-61
2023/03/05 10:01:51;;;;;;;22.03;16.83;;;;;;;17.96;89.03;150550.69;5114226;28;20554;-61
2023/03/05 10:04:24;;;;;;;22.63;15.87;;;;;;;18.63;83.15;150719.84;5113902;28;20228;-61
2023/03/05 10:06:58;;;;;;;20.90;16.57;;;;;;;20.14;75.43;151100.41;5113697;28;20294;-61
2023/03/05 10:09:42;;;;;;;17.93;15.90;;;;;;;19.97;73.12;151057.09;5113834;28;20645;-62
2023/03/05 10:12:22;;;;;;;18.67;15.88;;;;;;;19.54;75.92;150948.91;5113830;28;20180;-61
2023/03/05 10:14:49;;;;;;;24.20;18.67;;;;;;;19.15;82.71;150852.16;5113996;28;20668;-60
2023/03/05 10:17:44;;;;;;;25.83;18.40;;;;;;;18.60;87.54;150713.50;5113546;28;20190;-61
2023/03/05 10:20:27;;;;;;;24.70;17.83;;;;;;;18.49;86.44;150685.50;5113991;28;20558;-62
2023/03/05 10:23:11;;;;;;;23.10;19.83;;;;;;;18.19;92.27;150609.19;5113237;28;20248;-61
2023/03/05 10:25:52;;;;;;;23.80;18.80;;;;;;;18.06;89.54;150576.13;5113780;28;20199;-61
2023/03/05 10:28:24;;;;;;;22.23;17.33;;;;;;;17.28;96.57;150380.34;5113720;28;20184;-62
2023/03/05 10:31:08;;;;;;;19.13;16.60;;;;;;;17.27;92.37;150379.06;5113418;28;20267;-61
2023/03/05 10:33:43;;;;;;;21.70;16.03;;;;;;;16.98;94.32;150305.38;5113282;28;20183;-60
2023/03/05 10:36:31;;;;;;;20.90;15.97;;;;;;;17.03;92.37;150316.81;5113326;28;20185;-61
2023/03/05 10:39:33;;;;;;;17.00;15.20;;;;;;;17.08;86.90;150330.81;5113245;28;20190;-61
2023/03/05 10:42:05;;;;;;;16.57;14.97;;;;;;;16.87;89.52;150278.72;5113432;28;20696;-60
2023/03/05 10:44:37;;;;;;;18.50;14.30;;;;;;;16.68;88.14;150229.16;5113331;28;20612;-61
2023/03/05 10:47:15;;;;;;;19.07;14.53;;;;;;;16.74;88.85;150245.69;5112978;28;20203;-62
2023/03/05 10:49:49;;;;;;;16.30;14.03;;;;;;;16.75;89.11;150246.97;5113160;28;20199;-62
2023/03/05 10:52:22;;;;;;;16.37;14.63;;;;;;;16.84;85.35;150271.13;5113050;28;20183;-61
2023/03/05 10:54:50;;;;;;;17.67;14.77;;;;;;;16.49;90.35;150180.88;5112668;28;20184;-61
2023/03/05 10:57:19;;;;;;;16.73;14.90;;;;;;;16.12;93.80;150088.22;5112855;28;20186;-61
2023/03/05 10:59:49;;;;;;;18.30;15.20;;;;;;;16.21;94.50;150112.28;5113109;28;20566;-61
2023/03/05 11:02:16;;;;;;;16.10;14.53;;;;;;;15.90;92.14;150034.88;5112773;28;20190;-61
2023/03/05 11:04:46;;;;;;;17.80;14.40;;;;;;;15.75;93.17;149995.50;5112757;28;20187;-62
2023/03/05 11:07:38;;;;;;;17.63;14.60;;;;;;;15.53;92.74;149941.00;5112704;28;20264;-60
2023/03/05 11:10:14;;;;;;;16.13;13.07;;;;;;;15.77;91.53;150001.88;5112541;28;20230;-60
2023/03/05 11:12:45;;;;;;;13.30;11.77;;;;;;;15.63;84.87;149966.34;5112995;28;20183;-60
2023/03/05 11:15:29;;;;;;;12.83;11.73;;;;;;;15.60;85.95;149958.72;5112530;28;20190;-60
2023/03/05 11:18:20;;;;;;;13.50;12.20;;;;;;;15.49;88.39;149932.00;5113011;28;20638;-61
2023/03/05 11:20:47;;;;;;;21.47;13.23;;;;;;;15.42;90.72;149913.00;5112700;28;20190;-60
2023/03/05 11:23:17;;;;;;;16.00;14.27;;;;;;;15.31;94.93;149885.09;5112695;28;20187;-61
2023/03/05 11:25:59;;;;;;;14.53;12.73;;;;;;;15.15;91.58;149845.75;5112767;28;20204;-60